Time;durP1;ratioP1;P1;durP2;ratioP2;P2;SDS_P1;SDS_P2;PMS_P1;PMS_P2;Temp;Humidity;BMP_temperature;BMP_pressure;BME280_temperature;BME280_humidity;BME280_pressure;Samples;Min_cycle;Max_cycle;Signal;HPM_P1;HPM_P2
2022/01/06 00:04:09;;;;;;;16.64;9.50;;;;;;;5.18;80.35;98248.74;371860;141;879675;-66
2022/01/06 00:05:11;;;;;;;10.39;6.30;;;;;;;5.15;80.35;98251.34;362915;146;857577;-65
2022/01/06 00:06:13;;;;;;;10.05;6.65;;;;;;;4.89;80.05;98260.23;360158;147;857164;-67
2022/01/06 00:07:15;;;;;;;9.51;5.92;;;;;;;4.95;80.74;98260.15;361584;147;857226;-67
2022/01/06 00:08:17;;;;;;;9.70;6.43;;;;;;;4.91;80.37;98263.63;364588;146;857284;-66
2022/01/06 00:09:20;;;;;;;8.83;5.92;;;;;;;5.00;80.77;98267.80;365869;147;858923;-67
2022/01/06 00:10:23;;;;;;;7.57;4.67;;;;;;;5.07;80.59;98267.69;365425;147;859178;-66
2022/01/06 00:11:25;;;;;;;6.83;4.47;;;;;;;5.16;80.21;98260.73;364548;147;857276;-66
2022/01/06 00:12:37;;;;;;;8.34;4.69;;;;;;;5.30;79.62;98265.70;365914;147;866041;-66
2022/01/06 00:13:46;;;;;;;6.52;4.49;;;;;;;5.47;79.41;98268.05;361640;147;857260;-66
2022/01/06 00:14:51;;;;;;;7.24;3.68;;;;;;;5.58;78.52;98266.17;361884;147;867792;-65
2022/01/06 00:15:58;;;;;;;5.08;3.84;;;;;;;5.67;77.72;98270.30;362239;147;867004;-66
2022/01/06 00:17:02;;;;;;;6.24;4.22;;;;;;;;;;355942;147;865201;-66
2022/01/06 00:24:04;;;;;;;7.56;4.33;;;;;;;;;;364632;145;857317;-66
2022/01/06 00:25:06;;;;;;;6.95;4.62;;;;;;;;;;363684;146;857250;-65
2022/01/06 00:26:09;;;;;;;8.56;4.97;;;;;;;;;;363758;146;865155;-64
2022/01/06 00:27:10;;;;;;;5.95;4.22;;;;;;;;;;365335;147;857169;-65
2022/01/06 00:28:12;;;;;;;6.74;4.14;;;;;;;;;;365152;147;859294;-65
2022/01/06 00:29:14;;;;;;;6.14;4.39;;;;;;;;;;362717;146;857269;-65
2022/01/06 00:30:16;;;;;;;5.54;4.01;;;;;;;;;;361961;147;866936;-65
2022/01/06 00:31:18;;;;;;;9.71;5.03;;;;;;;;;;365949;147;857154;-65
2022/01/06 00:32:19;;;;;;;7.88;4.20;;;;;;;;;;364314;146;857694;-65
2022/01/06 00:33:21;;;;;;;6.66;4.35;;;;;;;;;;363888;146;864748;-65
2022/01/06 00:34:23;;;;;;;7.01;4.13;;;;;;;;;;361263;147;859749;-67
2022/01/06 00:35:25;;;;;;;5.90;4.33;;;;;;;;;;362906;146;865221;-65
2022/01/06 00:36:26;;;;;;;6.81;3.81;;;;;;;;;;364548;145;857665;-65
2022/01/06 00:37:28;;;;;;;5.69;3.70;;;;;;;;;;364163;147;857438;-67
2022/01/06 00:38:29;;;;;;;5.51;3.80;;;;;;;;;;363920;146;865693;-65
2022/01/06 00:39:31;;;;;;;6.39;3.65;;;;;;;;;;364360;146;859507;-65
2022/01/06 00:40:33;;;;;;;5.58;3.61;;;;;;;;;;361985;146;864804;-66
2022/01/06 00:41:36;;;;;;;5.73;3.82;;;;;;;;;;366155;147;866610;-65
2022/01/06 00:42:39;;;;;;;6.40;3.51;;;;;;;;;;362733;146;858724;-65
2022/01/06 00:43:41;;;;;;;5.33;3.67;;;;;;;;;;364238;146;857826;-66
2022/01/06 00:44:42;;;;;;;6.19;3.41;;;;;;;;;;365883;147;864792;-65
2022/01/06 00:45:44;;;;;;;4.41;3.35;;;;;;;;;;364515;147;859805;-65
2022/01/06 00:46:45;;;;;;;5.44;3.91;;;;;;;;;;361700;146;864679;-65
2022/01/06 00:47:47;;;;;;;6.58;3.75;;;;;;;;;;364645;147;864848;-65
2022/01/06 00:48:49;;;;;;;4.72;3.21;;;;;;;;;;361366;145;857213;-65
2022/01/06 00:49:50;;;;;;;5.68;3.37;;;;;;;;;;363113;146;857190;-66
2022/01/06 00:50:52;;;;;;;7.23;3.74;;;;;;;;;;365375;146;857362;-65
2022/01/06 00:51:53;;;;;;;5.29;3.27;;;;;;;;;;365760;146;860295;-65
2022/01/06 00:52:55;;;;;;;4.76;3.24;;;;;;;;;;362384;147;864834;-65
2022/01/06 00:53:56;;;;;;;4.83;3.39;;;;;;;;;;362106;146;865751;-64
2022/01/06 00:54:58;;;;;;;5.20;3.50;;;;;;;;;;362970;147;859777;-65
2022/01/06 00:56:00;;;;;;;5.60;3.64;;;;;;;;;;364419;146;865819;-66
2022/01/06 00:57:01;;;;;;;4.71;3.46;;;;;;;;;;363575;145;857459;-66
2022/01/06 00:58:03;;;;;;;4.54;3.57;;;;;;;;;;365019;146;857348;-66
2022/01/06 00:59:04;;;;;;;4.59;3.53;;;;;;;;;;361045;149;866487;-66
2022/01/06 01:00:07;;;;;;;6.21;3.65;;;;;;;;;;364069;145;866122;-65
2022/01/06 01:01:08;;;;;;;7.13;3.95;;;;;;;;;;365477;146;858673;-66
2022/01/06 01:02:10;;;;;;;6.71;3.47;;;;;;;;;;365678;147;858731;-66
2022/01/06 01:03:12;;;;;;;4.89;3.39;;;;;;;;;;365419;147;857433;-65
2022/01/06 01:04:14;;;;;;;6.03;3.51;;;;;;;;;;364689;146;866554;-64
2022/01/06 01:05:15;;;;;;;7.51;3.83;;;;;;;;;;363389;147;857789;-65
2022/01/06 01:06:18;;;;;;;5.51;3.47;;;;;;;;;;362532;147;864817;-64
2022/01/06 01:07:19;;;;;;;7.33;4.22;;;;;;;;;;362619;147;857134;-65
2022/01/06 01:08:22;;;;;;;6.09;3.81;;;;;;;;;;362453;146;866711;-65
2022/01/06 01:09:23;;;;;;;5.93;3.89;;;;;;;;;;364191;145;859261;-66
2022/01/06 01:10:25;;;;;;;5.06;3.79;;;;;;;;;;364310;145;859635;-64
2022/01/06 01:11:27;;;;;;;6.35;4.05;;;;;;;;;;365694;146;857471;-65
2022/01/06 01:12:29;;;;;;;6.34;3.87;;;;;;;;;;365459;147;866774;-64
2022/01/06 01:13:32;;;;;;;7.78;3.73;;;;;;;;;;364125;147;859694;-64
2022/01/06 01:14:45;;;;;;;5.49;3.63;;;;;;;;;;363516;146;857333;-65
2022/01/06 01:15:46;;;;;;;6.74;4.16;;;;;;;;;;364726;147;858719;-65
2022/01/06 01:16:52;;;;;;;6.58;3.96;;;;;;;;;;365448;147;864743;-64
2022/01/06 01:17:48;;;;;;;5.15;3.81;;;;;;;;;;363715;146;859761;-63
2022/01/06 01:18:50;;;;;;;5.61;4.03;;;;;;;;;;365235;147;857350;-64
2022/01/06 01:19:52;;;;;;;5.33;4.17;;;;;;;;;;365403;147;858157;-64
2022/01/06 01:20:54;;;;;;;7.21;4.06;;;;;;;;;;365153;147;858921;-65
2022/01/06 01:21:55;;;;;;;6.29;3.87;;;;;;;;;;363965;146;859488;-65
2022/01/06 01:22:57;;;;;;;4.93;4.13;;;;;;;;;;360714;145;857631;-65
2022/01/06 01:23:58;;;;;;;4.47;3.65;;;;;;;;;;363310;145;861945;-66
2022/01/06 01:25:00;;;;;;;3.82;3.45;;;;;;;;;;350950;151;864977;-65
2022/01/06 01:26:02;;;;;;;5.89;3.93;;;;;;;;;;364621;146;859034;-65
2022/01/06 01:27:04;;;;;;;8.86;4.14;;;;;;;;;;360174;149;867206;-65
2022/01/06 01:28:06;;;;;;;10.95;4.43;;;;;;;;;;361238;146;861149;-65
2022/01/06 01:29:15;;;;;;;6.50;4.06;;;;;;;;;;364449;146;858160;-66
2022/01/06 01:30:15;;;;;;;5.85;3.53;;;;;;;;;;363310;147;857724;-65
2022/01/06 01:32:28;;;;;;;5.61;3.78;;;;;;;;;;363577;146;859001;-65
2022/01/06 01:33:24;;;;;;;7.01;3.81;;;;;;;;;;362875;146;857696;-63
2022/01/06 01:34:27;;;;;;;5.03;3.46;;;;;;;;;;363293;145;857904;-65
2022/01/06 01:35:32;;;;;;;4.75;3.34;;;;;;;;;;364323;146;866495;-65
2022/01/06 01:36:33;;;;;;;4.87;3.70;;;;;;;;;;365183;146;857063;-65
2022/01/06 01:37:35;;;;;;;7.56;4.26;;;;;;;;;;365938;147;857869;-65
2022/01/06 01:38:37;;;;;;;5.59;3.63;;;;;;;;;;364277;146;864803;-64
2022/01/06 01:39:38;;;;;;;5.82;3.94;;;;;;;;;;364081;146;857673;-65
2022/01/06 01:40:40;;;;;;;5.79;3.91;;;;;;;;;;364985;147;857169;-64
2022/01/06 01:41:42;;;;;;;5.87;4.03;;;;;;;;;;363421;147;865891;-65
2022/01/06 01:42:43;;;;;;;5.72;3.80;;;;;;;;;;362514;146;866083;-64
2022/01/06 01:43:50;;;;;;;4.87;3.64;;;;;;;;;;362512;145;865752;-65
2022/01/06 01:44:50;;;;;;;4.59;3.42;;;;;;;;;;363654;147;858862;-65
2022/01/06 01:45:56;;;;;;;4.25;3.76;;;;;;;;;;362024;146;857220;-65
2022/01/06 01:47:01;;;;;;;5.83;4.03;;;;;;;;;;361489;146;857286;-65
2022/01/06 01:48:03;;;;;;;5.08;3.80;;;;;;;;;;361415;147;857279;-65
2022/01/06 01:49:31;;;;;;;6.80;3.37;;;;;;;;;;360625;146;859462;-65
2022/01/06 01:50:21;;;;;;;6.18;3.97;;;;;;;;;;364467;146;857742;-64
2022/01/06 01:51:23;;;;;;;6.85;4.25;;;;;;;;;;359259;150;858960;-64
2022/01/06 01:52:24;;;;;;;5.36;4.20;;;;;;;;;;362953;147;857219;-65
2022/01/06 01:53:26;;;;;;;5.37;4.23;;;;;;;;;;363571;146;857375;-64
2022/01/06 01:54:27;;;;;;;4.56;3.57;;;;;;;;;;362202;147;867125;-65
2022/01/06 01:55:29;;;;;;;5.06;3.55;;;;;;;;;;361175;147;858686;-65
2022/01/06 01:56:31;;;;;;;5.11;3.45;;;;;;;;;;362451;146;864949;-64
2022/01/06 01:57:33;;;;;;;4.42;3.53;;;;;;;;;;365648;146;857168;-65
2022/01/06 01:58:35;;;;;;;5.81;3.46;;;;;;;;;;365673;146;857282;-64
2022/01/06 01:59:36;;;;;;;4.41;3.54;;;;;;;;;;355119;149;864844;-64
2022/01/06 02:00:38;;;;;;;4.96;3.60;;;;;;;;;;364797;146;866689;-64
2022/01/06 02:01:42;;;;;;;8.04;3.78;;;;;;;;;;361972;147;865659;-64
2022/01/06 02:02:43;;;;;;;5.92;3.62;;;;;;;;;;364159;147;864996;-64
2022/01/06 02:03:45;;;;;;;4.81;3.46;;;;;;;;;;364414;146;857251;-64
2022/01/06 02:04:49;;;;;;;5.19;3.83;;;;;;;;;;363491;147;865298;-67
2022/01/06 02:05:50;;;;;;;8.93;4.24;;;;;;;;;;360097;147;857664;-65
2022/01/06 02:06:51;;;;;;;4.09;3.34;;;;;;;;;;358012;146;859159;-64
2022/01/06 02:07:53;;;;;;;6.54;4.10;;;;;;;;;;363268;147;866544;-66
2022/01/06 02:08:55;;;;;;;5.14;3.53;;;;;;;;;;351508;150;857387;-65
2022/01/06 02:09:56;;;;;;;5.70;4.08;;;;;;;;;;342310;153;857307;-64
2022/01/06 02:10:58;;;;;;;6.64;3.97;;;;;;;;;;350065;151;859297;-65
2022/01/06 02:12:00;;;;;;;5.27;3.49;;;;;;;;;;353368;152;865548;-64
2022/01/06 02:13:03;;;;;;;7.13;4.37;;;;;;;;;;349754;149;860742;-64
2022/01/06 02:14:06;;;;;;;6.81;3.84;;;;;;;;;;349284;150;860610;-64
2022/01/06 02:15:09;;;;;;;4.96;3.71;;;;;;;;;;347774;150;857882;-64
2022/01/06 02:16:11;;;;;;;4.44;3.54;;;;;;;;;;349319;152;857668;-65
2022/01/06 02:17:12;;;;;;;5.44;3.54;;;;;;;;;;352235;149;859175;-66
2022/01/06 02:18:14;;;;;;;6.81;3.55;;;;;;;;;;350391;150;864821;-64
2022/01/06 02:19:15;;;;;;;6.53;3.90;;;;;;;;;;349778;151;857639;-64
2022/01/06 02:20:18;;;;;;;6.05;4.02;;;;;;;;;;347142;154;857733;-64
2022/01/06 02:21:20;;;;;;;5.76;3.81;;;;;;;;;;349839;152;858989;-66
2022/01/06 02:22:21;;;;;;;7.24;4.29;;;;;;;;;;351307;152;858660;-67
2022/01/06 02:23:23;;;;;;;7.51;4.01;;;;;;;;;;346628;151;857334;-64
2022/01/06 02:24:24;;;;;;;5.33;3.93;;;;;;;;;;346106;152;857382;-65
2022/01/06 02:25:27;;;;;;;5.05;4.11;;;;;;;;;;346558;152;859187;-65
2022/01/06 02:26:29;;;;;;;5.14;3.85;;;;;;;;;;344993;154;859654;-65
2022/01/06 02:27:31;;;;;;;5.62;3.86;;;;;;;;;;349096;151;864816;-64
2022/01/06 02:28:32;;;;;;;5.18;3.83;;;;;;;;;;348284;152;857136;-65
2022/01/06 02:29:34;;;;;;;5.22;3.63;;;;;;;;;;355137;149;857976;-64
2022/01/06 02:30:36;;;;;;;4.96;3.96;;;;;;;;;;350841;151;859940;-64
2022/01/06 02:31:40;;;;;;;5.23;3.52;;;;;;;;;;347074;152;865252;-64
2022/01/06 02:32:42;;;;;;;4.81;3.73;;;;;;;;;;348776;154;857190;-65
2022/01/06 02:33:44;;;;;;;4.73;3.52;;;;;;;;;;347214;152;864172;-64
2022/01/06 02:34:46;;;;;;;3.99;3.26;;;;;;;;;;346484;152;858907;-65
2022/01/06 02:35:48;;;;;;;4.69;3.16;;;;;;;;;;346834;151;864813;-65
2022/01/06 02:36:50;;;;;;;4.09;3.13;;;;;;;;;;349540;154;857696;-63
2022/01/06 02:37:51;;;;;;;3.46;2.81;;;;;;;;;;347932;154;858921;-63
2022/01/06 02:38:53;;;;;;;3.75;2.73;;;;;;;;;;345657;152;866608;-64
2022/01/06 02:39:54;;;;;;;4.37;2.63;;;;;;;;;;348723;154;865965;-66
2022/01/06 02:40:56;;;;;;;4.24;2.71;;;;;;;;;;346373;154;857512;-66
2022/01/06 02:41:58;;;;;;;3.56;2.84;;;;;;;;;;347216;152;864891;-66
2022/01/06 02:42:59;;;;;;;3.28;2.71;;;;;;;;;;349323;153;866482;-65
2022/01/06 02:44:03;;;;;;;4.58;2.87;;;;;;;;;;344626;154;865354;-66
2022/01/06 02:45:05;;;;;;;2.79;2.11;;;;;;;;;;347295;152;864894;-65
2022/01/06 02:46:09;;;;;;;3.53;2.50;;;;;;;;;;346021;152;858618;-64
2022/01/06 02:47:11;;;;;;;3.06;2.68;;;;;;;;;;348295;154;865387;-65
2022/01/06 02:48:14;;;;;;;3.14;2.09;;;;;;;;;;347143;154;857275;-63
2022/01/06 02:49:15;;;;;;;4.26;2.45;;;;;;;;;;348141;152;859288;-65
2022/01/06 02:50:17;;;;;;;2.26;2.02;;;;;;;;;;348367;153;859512;-63
2022/01/06 02:51:19;;;;;;;2.18;1.98;;;;;;;;;;347010;152;864611;-65
2022/01/06 02:52:20;;;;;;;2.58;1.56;;;;;;;;;;346850;152;864937;-64
2022/01/06 02:53:22;;;;;;;3.48;1.95;;;;;;;;;;345229;153;864934;-64
2022/01/06 02:54:23;;;;;;;3.38;1.91;;;;;;;;;;344591;154;865353;-63
2022/01/06 02:55:25;;;;;;;2.51;2.11;;;;;;;;;;346149;152;864579;-64
2022/01/06 02:56:29;;;;;;;3.36;1.79;;;;;;;;;;348998;152;857296;-64
2022/01/06 02:57:30;;;;;;;2.38;1.71;;;;;;;;;;344902;154;864562;-64
2022/01/06 02:58:32;;;;;;;2.02;1.82;;;;;;;;;;348257;154;859178;-64
2022/01/06 02:59:33;;;;;;;2.92;2.11;;;;;;;;;;346406;151;857784;-67
2022/01/06 03:00:35;;;;;;;2.83;1.91;;;;;;;;;;348183;154;859163;-63
2022/01/06 03:01:39;;;;;;;4.01;1.89;;;;;;;;;;347213;154;857850;-64
2022/01/06 03:02:42;;;;;;;3.00;1.92;;;;;;;;;;347774;152;857288;-63
2022/01/06 03:03:44;;;;;;;2.37;2.04;;;;;;;;;;349250;152;858797;-65
2022/01/06 03:04:45;;;;;;;2.39;1.74;;;;;;;;;;349057;154;865424;-65
2022/01/06 03:05:47;;;;;;;2.64;2.00;;;;;;;;;;353653;152;864893;-64
2022/01/06 03:06:49;;;;;;;2.42;1.85;;;;;;;;;;353503;149;858068;-64
2022/01/06 03:07:50;;;;;;;2.13;1.92;;;;;;;;;;353172;152;865728;-64
2022/01/06 03:08:51;;;;;;;3.49;1.80;;;;;;;;;;352586;152;865513;-64
2022/01/06 03:09:55;;;;;;;2.64;1.87;;;;;;;;;;351625;149;856360;-64
2022/01/06 03:10:57;;;;;;;2.59;2.16;;;;;;;;;;352170;152;856254;-65
2022/01/06 03:12:00;;;;;;;2.71;2.17;;;;;;;;;;349425;152;863456;-65
2022/01/06 03:13:01;;;;;;;3.13;1.92;;;;;;;;;;352419;151;856206;-65
2022/01/06 03:14:03;;;;;;;2.97;1.96;;;;;;;;;;353043;152;856558;-65
2022/01/06 03:15:05;;;;;;;2.94;1.91;;;;;;;;;;349923;152;856303;-67
2022/01/06 03:16:07;;;;;;;3.16;2.34;;;;;;;;;;349150;152;856062;-64
2022/01/06 03:17:09;;;;;;;1.96;1.62;;;;;;;;;;351602;149;856077;-64
2022/01/06 03:18:10;;;;;;;6.00;2.21;;;;;;;;;;352976;152;856854;-65
2022/01/06 03:19:12;;;;;;;2.99;2.54;;;;;;;;;;352886;152;856363;-66
2022/01/06 03:20:14;;;;;;;3.21;2.32;;;;;;;;;;351032;149;856556;-64
2022/01/06 03:21:16;;;;;;;3.84;2.37;;;;;;;;;;348415;152;856051;-64
2022/01/06 03:24:11;;;;;;;2.97;2.19;;;;;;;5.53;75.26;98378.34;370888;141;880779;-65
2022/01/06 03:25:13;;;;;;;2.10;1.89;;;;;;;5.48;75.60;98388.66;365115;147;857603;-65
2022/01/06 03:26:17;;;;;;;2.38;1.77;;;;;;;5.50;75.71;98384.35;365172;147;857179;-65
2022/01/06 03:27:19;;;;;;;2.23;1.71;;;;;;;5.57;75.67;98374.88;364232;146;857817;-64
2022/01/06 03:28:21;;;;;;;2.01;1.80;;;;;;;5.62;74.83;98372.23;363619;147;857125;-64
2022/01/06 03:29:22;;;;;;;2.21;1.74;;;;;;;5.67;74.69;98368.74;363706;147;866692;-64
2022/01/06 03:30:25;;;;;;;2.51;1.57;;;;;;;5.77;74.76;98369.45;363941;146;857200;-64
2022/01/06 03:31:27;;;;;;;2.14;1.47;;;;;;;5.91;74.58;98371.00;362719;146;858976;-64
2022/01/06 03:32:29;;;;;;;2.10;1.54;;;;;;;6.05;74.22;98368.24;364950;147;857212;-65
2022/01/06 03:33:31;;;;;;;8.13;2.57;;;;;;;6.19;73.76;98368.05;364707;146;864895;-65
2022/01/06 03:34:33;;;;;;;2.31;1.60;;;;;;;6.33;73.31;98362.67;361822;146;857428;-66
2022/01/06 03:35:35;;;;;;;2.69;1.65;;;;;;;6.47;72.85;98359.88;361457;147;866752;-65
2022/01/06 03:36:37;;;;;;;2.23;1.69;;;;;;;;;;364530;147;857768;-65
2022/01/06 03:37:39;;;;;;;2.51;1.73;;;;;;;;;;364176;147;857792;-65
2022/01/06 03:44:18;;;;;;;2.58;1.71;;;;;;;6.94;70.36;98373.66;375701;141;867703;-66
2022/01/06 03:45:20;;;;;;;2.05;1.79;;;;;;;6.82;70.36;98379.86;365840;144;857162;-66
2022/01/06 03:46:23;;;;;;;3.32;1.83;;;;;;;6.81;70.47;98385.02;366204;144;858884;-66
2022/01/06 03:47:24;;;;;;;2.53;2.06;;;;;;;6.78;70.30;98383.36;365940;144;857243;-66
2022/01/06 03:48:26;;;;;;;2.50;1.74;;;;;;;;;;366409;144;865450;-66
2022/01/06 03:49:28;;;;;;;2.34;1.63;;;;;;;;;;363220;147;868403;-67
2022/01/06 03:50:29;;;;;;;3.46;2.19;;;;;;;;;;364510;144;865016;-65
2022/01/06 03:51:34;;;;;;;2.33;2.00;;;;;;;;;;367287;144;864758;-65
2022/01/06 03:52:35;;;;;;;2.56;2.05;;;;;;;;;;366096;144;859104;-66
2022/01/06 03:53:37;;;;;;;3.64;2.68;;;;;;;;;;365983;144;857141;-66
2022/01/06 03:54:39;;;;;;;2.90;2.35;;;;;;;;;;369585;144;864745;-65
2022/01/06 03:55:40;;;;;;;3.57;2.60;;;;;;;;;;367873;144;857430;-65
2022/01/06 03:57:00;;;;;;;3.45;2.76;;;;;;;;;;366972;144;858120;-65
2022/01/06 03:58:01;;;;;;;3.12;2.56;;;;;;;;;;369753;144;857804;-64
2022/01/06 03:59:03;;;;;;;4.62;2.62;;;;;;;;;;366454;144;864739;-65
2022/01/06 04:00:06;;;;;;;5.30;3.30;;;;;;;;;;366124;144;858062;-65
2022/01/06 04:01:08;;;;;;;4.55;3.17;;;;;;;;;;371618;144;857744;-65
2022/01/06 04:02:10;;;;;;;4.15;3.04;;;;;;;;;;365831;144;865084;-61
2022/01/06 04:03:11;;;;;;;5.01;3.15;;;;;;;;;;361383;146;866501;-64
2022/01/06 04:04:13;;;;;;;6.26;3.24;;;;;;;;;;361066;148;864751;-66
2022/01/06 04:05:15;;;;;;;4.46;3.17;;;;;;;;;;360694;147;857283;-64
2022/01/06 04:06:17;;;;;;;3.66;3.03;;;;;;;;;;360937;146;866655;-64
2022/01/06 04:07:18;;;;;;;4.51;3.16;;;;;;;;;;361985;147;859574;-65
2022/01/06 04:08:20;;;;;;;5.28;3.49;;;;;;;;;;362585;147;864667;-65
2022/01/06 04:09:22;;;;;;;4.21;3.25;;;;;;;;;;360959;146;858189;-64
2022/01/06 04:10:24;;;;;;;4.19;3.37;;;;;;;;;;364639;146;859868;-65
2022/01/06 04:11:26;;;;;;;5.30;3.22;;;;;;;;;;363108;148;858318;-65
2022/01/06 04:12:28;;;;;;;4.67;3.61;;;;;;;;;;362651;146;864882;-65
2022/01/06 04:13:29;;;;;;;5.29;3.79;;;;;;;;;;361875;146;864952;-65
2022/01/06 04:14:31;;;;;;;4.58;3.27;;;;;;;;;;362354;147;858624;-66
2022/01/06 04:15:33;;;;;;;5.49;3.46;;;;;;;;;;362031;146;864831;-66
2022/01/06 04:16:36;;;;;;;5.13;3.39;;;;;;;;;;360260;146;858282;-64
2022/01/06 04:17:38;;;;;;;4.98;3.57;;;;;;;;;;361403;147;857280;-65
2022/01/06 04:18:40;;;;;;;5.68;3.57;;;;;;;;;;361115;147;859390;-65
2022/01/06 04:19:41;;;;;;;4.90;3.59;;;;;;;;;;363057;146;857319;-65
2022/01/06 04:20:43;;;;;;;4.58;3.71;;;;;;;;;;362415;146;856970;-64
2022/01/06 04:21:45;;;;;;;5.97;3.67;;;;;;;;;;360107;147;859125;-64
2022/01/06 04:22:46;;;;;;;5.13;3.81;;;;;;;;;;363114;147;857219;-63
2022/01/06 04:23:48;;;;;;;6.40;3.76;;;;;;;;;;360476;146;857333;-64
2022/01/06 04:24:50;;;;;;;4.07;3.47;;;;;;;;;;364521;147;857078;-64
2022/01/06 04:25:51;;;;;;;5.49;3.49;;;;;;;;;;363435;147;858251;-64
2022/01/06 04:26:53;;;;;;;5.18;3.93;;;;;;;;;;362143;146;857665;-63
2022/01/06 04:27:54;;;;;;;6.69;4.16;;;;;;;;;;362714;146;864889;-63
2022/01/06 04:28:56;;;;;;;5.03;4.40;;;;;;;;;;360743;147;865259;-63
2022/01/06 04:29:58;;;;;;;7.30;4.48;;;;;;;;;;362103;146;860858;-65
2022/01/06 04:30:59;;;;;;;5.54;4.30;;;;;;;;;;361008;146;865087;-64
2022/01/06 04:32:01;;;;;;;4.58;3.96;;;;;;;;;;360183;147;865770;-65
2022/01/06 04:33:03;;;;;;;4.14;3.31;;;;;;;;;;360825;147;865788;-63
2022/01/06 04:34:04;;;;;;;5.80;4.06;;;;;;;;;;360248;146;866558;-65
2022/01/06 04:35:06;;;;;;;5.65;4.16;;;;;;;;;;361085;147;866641;-65
2022/01/06 04:36:09;;;;;;;5.37;3.88;;;;;;;;;;362927;147;867135;-65
2022/01/06 04:37:11;;;;;;;6.61;4.28;;;;;;;;;;362206;146;867154;-65
2022/01/06 04:38:13;;;;;;;4.64;3.54;;;;;;;;;;361159;147;857865;-65
2022/01/06 04:39:14;;;;;;;6.63;4.44;;;;;;;;;;361015;147;864834;-65
2022/01/06 04:40:17;;;;;;;6.58;4.53;;;;;;;;;;361029;147;858001;-65
2022/01/06 04:41:19;;;;;;;5.91;4.95;;;;;;;;;;362141;146;857365;-65
2022/01/06 04:42:20;;;;;;;5.67;4.31;;;;;;;;;;362357;147;857801;-65
2022/01/06 04:43:22;;;;;;;5.38;4.29;;;;;;;;;;360353;147;866094;-65
2022/01/06 04:44:24;;;;;;;7.13;4.68;;;;;;;;;;361820;146;864764;-64
2022/01/06 04:45:26;;;;;;;6.47;4.80;;;;;;;;;;363089;146;858934;-65
2022/01/06 04:46:27;;;;;;;7.60;4.84;;;;;;;;;;364705;147;861748;-65
2022/01/06 04:47:29;;;;;;;8.06;3.91;;;;;;;;;;363997;146;865854;-65
2022/01/06 04:48:31;;;;;;;7.36;4.69;;;;;;;;;;361504;146;866376;-66
2022/01/06 04:49:33;;;;;;;5.59;4.48;;;;;;;;;;361065;147;864889;-65
2022/01/06 04:50:35;;;;;;;6.71;4.56;;;;;;;;;;362206;146;857242;-66
2022/01/06 04:51:36;;;;;;;6.57;4.56;;;;;;;;;;363108;146;865805;-63
2022/01/06 04:52:38;;;;;;;6.01;4.27;;;;;;;;;;360705;147;857231;-66
2022/01/06 04:53:39;;;;;;;7.03;4.31;;;;;;;;;;363170;148;860099;-62
2022/01/06 04:54:41;;;;;;;6.12;4.48;;;;;;;;;;362879;146;859182;-64
2022/01/06 04:55:42;;;;;;;5.44;3.68;;;;;;;;;;361758;147;858485;-65
2022/01/06 04:56:44;;;;;;;5.51;4.40;;;;;;;;;;361546;147;857402;-63
2022/01/06 04:57:46;;;;;;;5.71;4.56;;;;;;;;;;362247;147;865184;-64
2022/01/06 04:58:48;;;;;;;5.69;4.37;;;;;;;;;;363913;146;860664;-64
2022/01/06 04:59:50;;;;;;;5.16;4.15;;;;;;;;;;366364;147;861682;-64
2022/01/06 05:00:51;;;;;;;5.23;3.80;;;;;;;;;;361799;147;864709;-65
2022/01/06 05:01:53;;;;;;;5.83;4.33;;;;;;;;;;363279;146;867004;-64
2022/01/06 05:02:55;;;;;;;6.20;4.28;;;;;;;;;;361483;146;858138;-64
2022/01/06 05:03:56;;;;;;;6.16;3.86;;;;;;;;;;364758;147;857205;-64
2022/01/06 05:04:58;;;;;;;6.34;4.56;;;;;;;;;;363237;146;865750;-65
2022/01/06 05:06:00;;;;;;;5.72;3.75;;;;;;;;;;362419;146;864927;-64
2022/01/06 05:07:01;;;;;;;6.71;4.14;;;;;;;;;;364322;147;857625;-64
2022/01/06 05:08:03;;;;;;;6.01;4.16;;;;;;;;;;363775;147;856202;-64
2022/01/06 05:09:05;;;;;;;5.97;4.17;;;;;;;;;;362337;146;865957;-66
2022/01/06 05:10:07;;;;;;;5.85;4.15;;;;;;;;;;360763;147;857256;-64
2022/01/06 05:11:09;;;;;;;4.94;3.90;;;;;;;;;;363452;147;857165;-64
2022/01/06 05:12:11;;;;;;;4.77;4.17;;;;;;;;;;361062;146;857949;-64
2022/01/06 05:24:25;;;;;;;5.08;3.44;;;;;;;5.28;74.55;98465.88;373406;141;881764;-59
2022/01/06 05:25:28;;;;;;;3.79;3.01;;;;;;;5.22;74.28;98476.20;364824;147;859592;-59
2022/01/06 05:26:30;;;;;;;3.26;2.84;;;;;;;5.13;74.64;98469.46;363414;146;857177;-60
2022/01/06 05:27:32;;;;;;;3.83;2.77;;;;;;;5.21;74.60;98465.10;360255;146;863131;-59
2022/01/06 05:28:34;;;;;;;3.05;2.46;;;;;;;5.29;74.50;98467.58;364576;147;857141;-59
2022/01/06 05:29:35;;;;;;;3.24;2.59;;;;;;;5.38;73.90;98477.77;365871;144;864592;-59
2022/01/06 05:30:37;;;;;;;4.61;2.43;;;;;;;;;;365431;146;864781;-59
2022/01/06 05:31:39;;;;;;;5.22;3.42;;;;;;;;;;365318;147;857270;-58
2022/01/06 05:32:40;;;;;;;5.28;2.79;;;;;;;;;;363533;147;857380;-58
2022/01/06 05:33:42;;;;;;;4.11;3.11;;;;;;;;;;363925;146;859171;-58
2022/01/06 05:34:43;;;;;;;4.18;3.18;;;;;;;;;;365558;147;856318;-59
2022/01/06 05:35:45;;;;;;;4.30;3.39;;;;;;;;;;365129;147;857189;-60
2022/01/06 05:44:04;;;;;;;8.06;3.58;;;;;;;5.96;70.58;98488.23;369365;142;883721;-60
2022/01/06 05:45:07;;;;;;;4.51;2.77;;;;;;;5.73;71.26;98487.66;362177;147;857282;-62
2022/01/06 05:46:09;;;;;;;4.11;2.99;;;;;;;5.59;71.52;98498.94;363460;147;857220;-60
2022/01/06 05:47:11;;;;;;;3.66;2.51;;;;;;;5.47;71.75;98493.94;361785;145;857616;-60
2022/01/06 05:48:13;;;;;;;5.01;2.66;;;;;;;5.50;71.88;98501.61;365308;144;864716;-59
2022/01/06 05:49:15;;;;;;;3.33;2.73;;;;;;;;;;363649;145;857140;-60
2022/01/06 05:50:18;;;;;;;4.49;2.83;;;;;;;;;;362439;144;864601;-59
2022/01/06 05:51:19;;;;;;;3.29;2.57;;;;;;;;;;361669;145;857903;-60
2022/01/06 05:52:21;;;;;;;5.04;3.01;;;;;;;;;;362401;147;864781;-61
2022/01/06 05:53:22;;;;;;;4.06;2.86;;;;;;;;;;361713;146;857573;-60
2022/01/06 05:54:24;;;;;;;4.07;3.03;;;;;;;;;;362798;145;857123;-61
2022/01/06 05:55:25;;;;;;;4.60;3.33;;;;;;;;;;362140;145;857133;-61
2022/01/06 05:56:28;;;;;;;4.74;3.28;;;;;;;;;;361987;147;865644;-60
2022/01/06 05:57:30;;;;;;;4.72;3.63;;;;;;;;;;362380;146;868381;-60
2022/01/06 05:58:31;;;;;;;3.94;3.36;;;;;;;;;;364002;145;857093;-58
2022/01/06 05:59:33;;;;;;;5.49;3.49;;;;;;;;;;364550;144;855992;-58
2022/01/06 06:00:35;;;;;;;4.89;3.44;;;;;;;;;;363958;147;865832;-60
2022/01/06 06:01:37;;;;;;;5.16;3.44;;;;;;;;;;362402;145;864778;-61
2022/01/06 06:02:38;;;;;;;5.57;3.57;;;;;;;;;;365662;145;864702;-59
2022/01/06 06:03:40;;;;;;;5.51;3.64;;;;;;;;;;365868;147;857205;-59
2022/01/06 06:04:41;;;;;;;4.79;3.99;;;;;;;;;;362512;145;857433;-58
2022/01/06 06:05:43;;;;;;;5.00;3.38;;;;;;;;;;363121;145;858728;-58
2022/01/06 06:06:45;;;;;;;5.28;3.60;;;;;;;;;;363352;146;864866;-59
2022/01/06 06:07:46;;;;;;;5.16;3.29;;;;;;;;;;361735;146;864726;-59
2022/01/06 06:08:48;;;;;;;6.09;3.56;;;;;;;;;;363813;145;858994;-59
2022/01/06 06:09:50;;;;;;;6.06;3.42;;;;;;;;;;363159;147;858087;-60
2022/01/06 06:10:51;;;;;;;4.55;3.36;;;;;;;;;;361149;146;860095;-59
2022/01/06 06:11:53;;;;;;;5.22;3.64;;;;;;;;;;363774;145;858159;-60
2022/01/06 06:12:55;;;;;;;5.52;3.49;;;;;;;;;;364912;145;857333;-57
2022/01/06 06:13:56;;;;;;;3.82;3.42;;;;;;;;;;362851;148;857384;-60
2022/01/06 06:14:58;;;;;;;5.39;3.47;;;;;;;;;;362882;144;857303;-60
2022/01/06 06:15:59;;;;;;;4.81;3.30;;;;;;;;;;364910;145;859224;-58
2022/01/06 06:17:01;;;;;;;4.84;3.61;;;;;;;;;;366041;145;859371;-59
2022/01/06 06:18:03;;;;;;;5.75;3.71;;;;;;;;;;363737;146;865788;-58
2022/01/06 06:19:05;;;;;;;4.51;3.77;;;;;;;;;;362290;145;857312;-59
2022/01/06 06:20:07;;;;;;;4.89;3.41;;;;;;;;;;360352;147;857280;-56
2022/01/06 06:21:09;;;;;;;6.74;3.49;;;;;;;;;;360188;146;858896;-59
2022/01/06 06:22:11;;;;;;;3.96;3.03;;;;;;;;;;362451;145;857296;-59
2022/01/06 06:23:12;;;;;;;4.16;2.81;;;;;;;;;;362388;145;864674;-59
2022/01/06 06:24:14;;;;;;;4.84;3.64;;;;;;;;;;363166;147;859149;-58
2022/01/06 06:25:15;;;;;;;4.09;3.33;;;;;;;;;;361738;146;857754;-58
2022/01/06 06:26:18;;;;;;;4.57;3.53;;;;;;;;;;363207;145;857210;-58
2022/01/06 06:27:19;;;;;;;5.09;2.95;;;;;;;;;;360393;147;857249;-58
2022/01/06 06:28:21;;;;;;;3.69;2.84;;;;;;;;;;359736;146;858992;-60
2022/01/06 06:29:22;;;;;;;5.15;3.49;;;;;;;;;;362794;145;866483;-57
2022/01/06 06:30:24;;;;;;;3.68;3.20;;;;;;;;;;362721;145;858972;-57
2022/01/06 06:31:26;;;;;;;4.64;3.29;;;;;;;;;;360439;147;858219;-57
2022/01/06 06:32:28;;;;;;;4.62;3.43;;;;;;;;;;363672;144;860087;-58
2022/01/06 06:33:30;;;;;;;4.92;3.62;;;;;;;;;;362455;145;858306;-58